Terminal Aerodrome Forecast
Issued by NWS Huntsville, AL

Home | Current Version | Previous Version | Text Only | Print | Product List | Glossary On
Versions: 1 2 3 4 5 6 7 8 9 10 11 12 13 14 15
000
FTUS44 KHUN 250520
TAFHSV
TAF
KHSV 250520Z 2506/2606 VRB03KT P6SM FEW250
     FM251500 20006KT P6SM SCT050 PROB30 2518/2524 -TSRA BKN040CB
     FM260100 14004KT P6SM SCT060 BKN200=

USA.gov is the U.S. government's official web portal to all federal, state and local government web resources and services.